Time;durP1;ratioP1;P1;durP2;ratioP2;P2;SDS_P1;SDS_P2;PMS_P1;PMS_P2;Temp;Humidity;BMP_temperature;BMP_pressure;BME280_temperature;BME280_humidity;BME280_pressure;Samples;Min_cycle;Max_cycle;Signal;HPM_P1;HPM_P2
2021/10/19 00:00:04;;;;;;;21.40;16.48;;;;;;;;;;5092233;28;20103;-88
2021/10/19 00:02:30;;;;;;;21.67;16.70;;;;;;;;;;5093455;28;20012;-88
2021/10/19 00:04:56;;;;;;;19.40;16.60;;;;;;;;;;5092360;28;20020;-89
2021/10/19 00:07:22;;;;;;;22.42;16.65;;;;;;;;;;5092287;28;20729;-88
2021/10/19 00:09:48;;;;;;;21.55;16.27;;;;;;;;;;5091836;28;20017;-89
2021/10/19 00:12:13;;;;;;;25.48;17.52;;;;;;;;;;5092205;28;20032;-89
2021/10/19 00:14:39;;;;;;;23.60;16.20;;;;;;;;;;5092211;28;20085;-88
2021/10/19 00:17:04;;;;;;;20.75;16.27;;;;;;;;;;5091720;28;20048;-88
2021/10/19 00:19:29;;;;;;;21.02;15.90;;;;;;;;;;5091981;28;20023;-88
2021/10/19 00:21:54;;;;;;;25.92;17.35;;;;;;;;;;5093394;28;20021;-88
2021/10/19 00:24:20;;;;;;;21.95;18.25;;;;;;;;;;5093182;28;20031;-88
2021/10/19 00:26:45;;;;;;;24.20;17.92;;;;;;;;;;5096941;28;20027;-88
2021/10/19 00:29:10;;;;;;;23.00;15.45;;;;;;;;;;5096969;28;20099;-88
2021/10/19 00:31:36;;;;;;;25.88;16.40;;;;;;;;;;5095621;28;20111;-89
2021/10/19 00:34:01;;;;;;;24.52;17.73;;;;;;;;;;5096714;28;20407;-89
2021/10/19 00:36:26;;;;;;;19.98;16.77;;;;;;;;;;5095558;28;20020;-89
2021/10/19 00:38:52;;;;;;;19.85;16.35;;;;;;;;;;5095414;28;20020;-88
2021/10/19 00:41:17;;;;;;;21.42;17.35;;;;;;;;;;5096622;28;20043;-88
2021/10/19 00:43:42;;;;;;;24.60;16.75;;;;;;;;;;5096859;28;20031;-89
2021/10/19 00:46:13;;;;;;;18.52;16.45;;;;;;;;;;5095408;28;20765;-88
2021/10/19 00:48:40;;;;;;;20.85;16.85;;;;;;;;;;5096574;28;20153;-88
2021/10/19 00:51:05;;;;;;;27.33;16.77;;;;;;;;;;5095230;28;20024;-89
2021/10/19 00:53:31;;;;;;;21.15;15.95;;;;;;;;;;5095429;28;20020;-89
2021/10/19 00:55:56;;;;;;;24.25;17.17;;;;;;;;;;5095199;28;20073;-89
2021/10/19 00:58:21;;;;;;;21.88;17.75;;;;;;;;;;5096295;28;20028;-89
2021/10/19 01:00:46;;;;;;;21.20;16.55;;;;;;;;;;5095168;28;20617;-89
2021/10/19 01:03:11;;;;;;;21.17;16.23;;;;;;;;;;5096284;28;20063;-89
2021/10/19 01:05:37;;;;;;;22.67;17.17;;;;;;;;;;5095400;28;20024;-88
2021/10/19 01:08:02;;;;;;;21.75;16.90;;;;;;;;;;5095465;28;20621;-88
2021/10/19 01:10:29;;;;;;;26.23;18.13;;;;;;;;;;5096100;28;20024;-88
2021/10/19 01:12:54;;;;;;;21.50;17.42;;;;;;;;;;5094899;28;20536;-88
2021/10/19 01:15:19;;;;;;;25.90;16.23;;;;;;;;;;5096136;28;20024;-89
2021/10/19 01:17:46;;;;;;;22.67;16.60;;;;;;;;;;5095921;28;20091;-90
2021/10/19 01:20:15;;;;;;;21.60;16.92;;;;;;;;;;5094865;28;20257;-90
2021/10/19 01:22:40;;;;;;;22.55;17.77;;;;;;;;;;5095951;28;20020;-90
2021/10/19 01:25:06;;;;;;;21.33;16.77;;;;;;;;;;5095723;28;20016;-90
2021/10/19 01:27:31;;;;;;;23.33;17.90;;;;;;;;;;5094504;28;20024;-90
2021/10/19 01:29:56;;;;;;;23.80;18.53;;;;;;;;;;5095906;28;20028;-90
2021/10/19 01:32:21;;;;;;;22.98;17.67;;;;;;;;;;5094484;28;20266;-90
2021/10/19 01:34:47;;;;;;;22.87;18.43;;;;;;;;;;5094284;28;20023;-90
2021/10/19 01:37:12;;;;;;;24.63;19.52;;;;;;;;;;5094224;28;20063;-90
2021/10/19 01:39:37;;;;;;;22.08;17.40;;;;;;;;;;5095406;28;20044;-90
2021/10/19 01:42:02;;;;;;;22.77;19.02;;;;;;;;;;5094297;28;20024;-89
2021/10/19 01:44:28;;;;;;;26.90;17.48;;;;;;;;;;5094138;28;20032;-90
2021/10/19 01:46:53;;;;;;;28.35;18.52;;;;;;;;;;5094373;28;20016;-90
2021/10/19 01:49:18;;;;;;;27.70;19.30;;;;;;;;;;5094012;28;20012;-90
2021/10/19 01:51:43;;;;;;;21.63;19.30;;;;;;;;;;5093937;28;20224;-89
2021/10/19 01:54:08;;;;;;;23.37;17.87;;;;;;;;;;5095213;28;20020;-90
2021/10/19 01:56:34;;;;;;;28.47;19.30;;;;;;;;;;5094039;28;20254;-87
2021/10/19 01:58:59;;;;;;;22.65;18.30;;;;;;;;;;5095232;28;20264;-87
2021/10/19 02:01:24;;;;;;;24.50;19.13;;;;;;;;;;5095015;28;20027;-87
2021/10/19 02:03:49;;;;;;;23.77;18.37;;;;;;;;;;5093745;28;20758;-87
2021/10/19 02:06:15;;;;;;;24.52;18.50;;;;;;;;;;5093795;28;20256;-88
2021/10/19 02:08:40;;;;;;;24.02;19.15;;;;;;;;;;5094869;28;20024;-88
2021/10/19 02:11:05;;;;;;;25.77;20.80;;;;;;;;;;5093660;28;20718;-87
2021/10/19 02:13:30;;;;;;;29.13;18.52;;;;;;;;;;5095132;28;20016;-88
2021/10/19 02:15:56;;;;;;;25.15;19.33;;;;;;;;;;5094626;28;20020;-88
2021/10/19 02:18:21;;;;;;;26.23;20.13;;;;;;;;;;5094712;28;20077;-88
2021/10/19 02:20:46;;;;;;;22.50;19.38;;;;;;;;;;5093371;28;20265;-88
2021/10/19 02:23:11;;;;;;;26.98;20.17;;;;;;;;;;5093406;28;20070;-88
2021/10/19 02:25:37;;;;;;;31.50;21.95;;;;;;;;;;5093416;28;20020;-88
2021/10/19 02:28:02;;;;;;;25.80;19.33;;;;;;;;;;5094566;28;20434;-88
2021/10/19 02:30:27;;;;;;;22.58;20.15;;;;;;;;;;5093387;28;20023;-87
2021/10/19 02:32:53;;;;;;;24.17;19.30;;;;;;;;;;5093408;28;20020;-87
2021/10/19 02:35:20;;;;;;;27.08;19.58;;;;;;;;;;5094376;28;20247;-88
2021/10/19 02:37:46;;;;;;;28.42;20.90;;;;;;;;;;5093072;28;20039;-87
2021/10/19 02:40:13;;;;;;;24.75;19.15;;;;;;;;;;5093103;28;20012;-87
2021/10/19 02:42:38;;;;;;;26.00;20.52;;;;;;;;;;5094378;28;20023;-87
2021/10/19 02:45:04;;;;;;;28.42;19.88;;;;;;;;;;5093056;28;20012;-87
2021/10/19 02:47:29;;;;;;;26.60;19.15;;;;;;;;;;5092745;28;20387;-88
2021/10/19 02:49:55;;;;;;;25.23;19.63;;;;;;;;;;5094015;28;20020;-87
2021/10/19 02:52:20;;;;;;;28.73;19.17;;;;;;;;;;5093102;28;20472;-87
2021/10/19 02:54:45;;;;;;;31.95;20.67;;;;;;;;;;5094150;28;20251;-88
2021/10/19 02:57:11;;;;;;;27.88;22.00;;;;;;;;;;5094072;28;20034;-88
2021/10/19 02:59:36;;;;;;;24.25;18.98;;;;;;;;;;5092977;28;20066;-88
2021/10/19 03:02:01;;;;;;;28.35;21.50;;;;;;;;;;5094070;28;20034;-88
2021/10/19 03:04:27;;;;;;;29.85;22.55;;;;;;;;;;5094089;28;20095;-88
2021/10/19 03:06:52;;;;;;;25.83;20.60;;;;;;;;;;5094119;28;20023;-88
2021/10/19 03:09:17;;;;;;;26.38;20.95;;;;;;;;;;5092934;28;20017;-88
2021/10/19 03:11:43;;;;;;;31.83;23.13;;;;;;;;;;5094001;28;20016;-88
2021/10/19 03:14:09;;;;;;;27.65;21.40;;;;;;;;;;5092724;28;20024;-88
2021/10/19 03:16:34;;;;;;;24.33;20.98;;;;;;;;;;5092313;28;20055;-88
2021/10/19 03:18:59;;;;;;;30.07;23.30;;;;;;;;;;5092786;28;20464;-88
2021/10/19 03:21:24;;;;;;;29.45;22.65;;;;;;;;;;5093736;28;20246;-88
2021/10/19 03:23:50;;;;;;;23.93;21.00;;;;;;;;;;5094038;28;20020;-87
2021/10/19 03:26:16;;;;;;;34.20;21.53;;;;;;;;;;5093023;28;20262;-88
2021/10/19 03:28:42;;;;;;;29.02;22.30;;;;;;;;;;5092516;28;20039;-88
2021/10/19 03:31:08;;;;;;;24.60;20.60;;;;;;;;;;5093614;28;20008;-88
2021/10/19 03:33:33;;;;;;;23.23;20.67;;;;;;;;;;5093814;28;20751;-88
2021/10/19 03:35:58;;;;;;;28.27;21.80;;;;;;;;;;5092375;28;20031;-88
2021/10/19 03:38:23;;;;;;;28.57;22.30;;;;;;;;;;5092474;28;20150;-87
2021/10/19 03:40:49;;;;;;;29.53;22.00;;;;;;;;;;5093771;28;20026;-88
2021/10/19 03:43:14;;;;;;;26.15;21.38;;;;;;;;;;5092353;28;20259;-88
2021/10/19 03:45:39;;;;;;;30.63;23.67;;;;;;;;;;5092380;28;20456;-88
2021/10/19 03:48:04;;;;;;;35.00;23.73;;;;;;;;;;5093614;28;20259;-88
2021/10/19 03:50:29;;;;;;;38.45;25.33;;;;;;;;;;5092315;28;20254;-88
2021/10/19 03:52:57;;;;;;;28.83;23.27;;;;;;;;;;5092298;28;20013;-88
2021/10/19 03:55:23;;;;;;;26.85;22.05;;;;;;;;;;5092218;28;20026;-88
2021/10/19 03:57:49;;;;;;;29.17;21.65;;;;;;;;;;5093389;28;20028;-88
2021/10/19 04:00:14;;;;;;;31.50;23.27;;;;;;;;;;5094838;28;20035;-88
2021/10/19 04:02:40;;;;;;;29.20;22.05;;;;;;;;;;5096124;28;20016;-88
2021/10/19 04:05:05;;;;;;;27.77;22.83;;;;;;;;;;5096172;28;20047;-88
2021/10/19 04:07:30;;;;;;;29.38;23.13;;;;;;;;;;5096246;28;20467;-88
2021/10/19 04:09:56;;;;;;;28.58;24.05;;;;;;;;;;5097289;28;20368;-88
2021/10/19 04:12:21;;;;;;;30.77;23.48;;;;;;;;;;5096207;28;20367;-88
2021/10/19 04:14:46;;;;;;;31.57;23.40;;;;;;;;;;5095992;28;20525;-89
2021/10/19 04:17:11;;;;;;;32.33;24.33;;;;;;;;;;5095693;28;20076;-88
2021/10/19 04:19:36;;;;;;;30.83;24.75;;;;;;;;;;5095724;28;20050;-88
2021/10/19 04:22:02;;;;;;;32.40;25.03;;;;;;;;;;5095748;28;20016;-87
2021/10/19 04:24:27;;;;;;;32.92;24.35;;;;;;;;;;5095759;28;20293;-87
2021/10/19 04:26:52;;;;;;;31.60;24.57;;;;;;;;;;5095702;28;20012;-87
2021/10/19 04:29:17;;;;;;;29.35;23.40;;;;;;;;;;5095711;28;20258;-87
2021/10/19 04:31:42;;;;;;;29.43;24.37;;;;;;;;;;5096985;28;20016;-87
2021/10/19 04:34:08;;;;;;;33.87;24.70;;;;;;;;;;5095756;28;20587;-87
2021/10/19 04:36:33;;;;;;;33.60;25.33;;;;;;;;;;5095263;28;20342;-87
2021/10/19 04:38:58;;;;;;;35.55;26.38;;;;;;;;;;5096725;28;20020;-87
2021/10/19 04:41:24;;;;;;;35.03;25.40;;;;;;;;;;5095450;28;20034;-87
2021/10/19 04:43:49;;;;;;;30.98;24.25;;;;;;;;;;5095420;28;20073;-87
2021/10/19 04:46:14;;;;;;;30.98;24.92;;;;;;;;;;5095324;28;20024;-87
2021/10/19 04:48:39;;;;;;;32.93;25.50;;;;;;;;;;5095290;28;20016;-87
2021/10/19 04:51:05;;;;;;;35.87;26.03;;;;;;;;;;5095344;28;20266;-87
2021/10/19 04:53:31;;;;;;;34.90;25.10;;;;;;;;;;5095129;28;20818;-87
2021/10/19 04:55:57;;;;;;;32.90;26.73;;;;;;;;;;5150661;22;20037;-87
2021/10/19 04:58:22;;;;;;;34.28;26.13;;;;;;;;;;5049780;28;20384;-87
2021/10/19 05:00:47;;;;;;;35.80;27.60;;;;;;;;;;5051380;28;20024;-86
2021/10/19 05:03:15;;;;;;;35.53;26.53;;;;;;;;;;5054515;28;20029;-88
2021/10/19 05:05:42;;;;;;;33.60;25.98;;;;;;;;;;5053993;28;20272;-89
2021/10/19 05:08:08;;;;;;;34.28;25.30;;;;;;;;;;5053393;28;20111;-88
2021/10/19 05:10:33;;;;;;;31.63;25.00;;;;;;;;;;5052096;28;20116;-89
2021/10/19 05:12:58;;;;;;;29.15;24.95;;;;;;;;;;5055394;28;20020;-89
2021/10/19 05:15:25;;;;;;;36.53;24.75;;;;;;;;;;5072399;28;20020;-89
2021/10/19 05:17:50;;;;;;;35.78;25.77;;;;;;;;;;5075293;28;20078;-89
2021/10/19 05:20:15;;;;;;;38.22;25.90;;;;;;;;;;5075531;28;20020;-89
2021/10/19 05:22:41;;;;;;;34.03;25.58;;;;;;;;;;5074667;28;20093;-89
2021/10/19 05:25:06;;;;;;;36.55;27.20;;;;;;;;;;5055325;28;20385;-88
2021/10/19 05:27:34;;;;;;;37.17;26.08;;;;;;;;;;5053673;28;20464;-89
2021/10/19 05:29:59;;;;;;;32.92;25.98;;;;;;;;;;5053296;28;20017;-88
2021/10/19 05:32:24;;;;;;;34.33;26.23;;;;;;;;;;5053712;28;20075;-89
2021/10/19 05:34:50;;;;;;;34.70;26.42;;;;;;;;;;5051952;28;20049;-89
2021/10/19 05:37:15;;;;;;;36.20;26.70;;;;;;;;;;5055418;28;20433;-89
2021/10/19 05:39:41;;;;;;;37.15;26.67;;;;;;;;;;5073418;28;20704;-89
2021/10/19 05:42:06;;;;;;;37.03;27.67;;;;;;;;;;5073419;28;20757;-89
2021/10/19 05:44:32;;;;;;;37.75;28.15;;;;;;;;;;5073143;28;20020;-89
2021/10/19 05:46:57;;;;;;;35.65;26.92;;;;;;;;;;5071295;28;20028;-89
2021/10/19 05:49:23;;;;;;;37.70;29.20;;;;;;;;;;5054498;28;20025;-88
2021/10/19 05:51:51;;;;;;;32.92;27.20;;;;;;;;;;5053312;28;20013;-89
2021/10/19 05:54:16;;;;;;;42.55;28.75;;;;;;;;;;5053241;28;20540;-88
2021/10/19 05:56:42;;;;;;;38.97;27.77;;;;;;;;;;5051156;28;20076;-88
2021/10/19 05:59:07;;;;;;;38.42;27.63;;;;;;;;;;5067218;28;20460;-89
2021/10/19 06:01:32;;;;;;;42.03;27.13;;;;;;;;;;5070201;28;20021;-89
2021/10/19 06:03:57;;;;;;;44.13;28.87;;;;;;;;;;5053097;28;20268;-88
2021/10/19 06:06:22;;;;;;;34.00;27.45;;;;;;;;;;5052714;28;20290;-88
2021/10/19 06:08:51;;;;;;;36.97;27.33;;;;;;;;;;5053880;28;20024;-88
2021/10/19 06:11:16;;;;;;;38.78;29.25;;;;;;;;;;5050536;28;20110;-88
2021/10/19 06:13:42;;;;;;;39.92;28.88;;;;;;;;;;5052937;28;20759;-89
2021/10/19 06:16:07;;;;;;;37.65;27.80;;;;;;;;;;5052736;28;20017;-89
2021/10/19 06:18:32;;;;;;;38.78;28.95;;;;;;;;;;5053819;28;20036;-89
2021/10/19 06:20:58;;;;;;;36.78;26.77;;;;;;;;;;5051502;28;20021;-89
2021/10/19 06:23:23;;;;;;;38.80;28.40;;;;;;;;;;5050301;28;20028;-89
2021/10/19 06:25:48;;;;;;;43.08;29.15;;;;;;;;;;5057403;28;20829;-89
2021/10/19 06:28:13;;;;;;;39.57;28.23;;;;;;;;;;5072689;28;20384;-88
2021/10/19 06:30:38;;;;;;;38.15;28.42;;;;;;;;;;5072963;28;20286;-88
2021/10/19 06:33:04;;;;;;;42.07;29.03;;;;;;;;;;5072219;28;20434;-88
2021/10/19 06:35:30;;;;;;;40.40;27.70;;;;;;;;;;5070299;28;20035;-88
2021/10/19 06:37:55;;;;;;;42.85;29.02;;;;;;;;;;5065664;28;20029;-89
2021/10/19 06:40:20;;;;;;;40.80;29.60;;;;;;;;;;5052469;28;20013;-88
2021/10/19 06:42:45;;;;;;;35.47;27.55;;;;;;;;;;5053414;28;20840;-89
2021/10/19 06:45:11;;;;;;;44.10;30.88;;;;;;;;;;5052143;28;20523;-89
2021/10/19 06:47:36;;;;;;;42.15;29.92;;;;;;;;;;5050220;28;20052;-89
2021/10/19 06:50:04;;;;;;;39.65;28.83;;;;;;;;;;5051456;28;20111;-89
2021/10/19 06:52:29;;;;;;;39.53;29.35;;;;;;;;;;5053635;28;20020;-89
2021/10/19 06:54:55;;;;;;;36.08;27.58;;;;;;;;;;5053307;28;20678;-89
2021/10/19 06:57:20;;;;;;;43.45;30.35;;;;;;;;;;5052033;28;20049;-89
2021/10/19 06:59:45;;;;;;;41.30;29.77;;;;;;;;;;5051632;28;20054;-89
2021/10/19 07:02:10;;;;;;;42.47;30.13;;;;;;;;;;5057406;28;20135;-89
2021/10/19 07:04:37;;;;;;;40.45;28.15;;;;;;;;;;5071733;28;20027;-89
2021/10/19 07:07:02;;;;;;;42.90;28.85;;;;;;;;;;5072706;28;20024;-89
2021/10/19 07:09:27;;;;;;;45.05;28.63;;;;;;;;;;5071775;28;20016;-89
2021/10/19 07:11:52;;;;;;;37.70;27.63;;;;;;;;;;5071508;28;20043;-89
2021/10/19 07:14:18;;;;;;;38.45;27.70;;;;;;;;;;5072022;28;20271;-89
2021/10/19 07:16:43;;;;;;;41.00;28.85;;;;;;;;;;5058656;28;20043;-90
2021/10/19 07:19:09;;;;;;;35.50;27.40;;;;;;;;;;5051553;28;20020;-89
2021/10/19 07:21:37;;;;;;;37.03;28.08;;;;;;;;;;5051916;28;20117;-89
2021/10/19 07:24:03;;;;;;;43.83;29.17;;;;;;;;;;5051153;28;20084;-89
2021/10/19 07:26:28;;;;;;;37.45;28.98;;;;;;;;;;5063322;28;20439;-89
2021/10/19 07:28:53;;;;;;;40.30;31.13;;;;;;;;;;5073531;28;20073;-89
2021/10/19 07:31:19;;;;;;;41.58;29.20;;;;;;;;;;5072156;28;20739;-89
2021/10/19 07:33:44;;;;;;;36.43;27.27;;;;;;;;;;5073538;28;20813;-88
2021/10/19 07:36:09;;;;;;;33.60;27.23;;;;;;;;;;5075118;28;20259;-89
2021/10/19 07:38:34;;;;;;;35.42;28.52;;;;;;;;;;5075551;28;20028;-89
2021/10/19 07:40:59;;;;;;;39.53;28.57;;;;;;;;;;5075829;28;20048;-89
2021/10/19 07:43:25;;;;;;;39.47;28.60;;;;;;;;;;5076160;28;20262;-89
2021/10/19 07:45:50;;;;;;;38.00;29.63;;;;;;;;;;5075133;28;20035;-88
2021/10/19 07:48:15;;;;;;;43.42;29.55;;;;;;;;;;5064281;28;20027;-89
2021/10/19 07:50:46;;;;;;;35.47;26.97;;;;;;;;;;5069002;28;20059;-88
2021/10/19 07:53:11;;;;;;;40.38;28.98;;;;;;;;;;5076039;28;20316;-88
2021/10/19 07:55:37;;;;;;;43.23;28.70;;;;;;;;;;5075207;28;20468;-89
2021/10/19 07:58:02;;;;;;;35.97;27.17;;;;;;;;;;5074537;28;20056;-88
2021/10/19 08:00:28;;;;;;;37.40;28.70;;;;;;;;;;5076357;28;20274;-89
2021/10/19 08:02:54;;;;;;;38.40;26.95;;;;;;;;;;5075629;28;20070;-88
2021/10/19 08:05:20;;;;;;;38.10;27.98;;;;;;;;;;5075559;28;20107;-89
2021/10/19 08:07:46;;;;;;;39.10;28.80;;;;;;;;;;5076770;28;20020;-88
2021/10/19 08:10:16;;;;;;;38.40;28.13;;;;;;;;;;5065940;28;20544;-88
2021/10/19 08:12:41;;;;;;;41.97;31.55;;;;;;;;;;5054566;28;20059;-88
2021/10/19 08:15:07;;;;;;;43.38;29.77;;;;;;;;;;5056907;28;20024;-88
2021/10/19 08:17:32;;;;;;;39.33;29.35;;;;;;;;;;5054925;28;20033;-88
2021/10/19 08:20:00;;;;;;;46.53;30.48;;;;;;;;;;5052965;28;20049;-88
2021/10/19 08:22:29;;;;;;;42.92;29.58;;;;;;;;;;5054775;28;20028;-89
2021/10/19 08:24:58;;;;;;;37.83;28.95;;;;;;;;;;5055282;28;20028;-89
2021/10/19 08:27:26;;;;;;;41.50;29.75;;;;;;;;;;5055401;28;20797;-89
2021/10/19 08:29:51;;;;;;;44.53;29.60;;;;;;;;;;5060336;28;20024;-89
2021/10/19 08:32:17;;;;;;;37.65;30.40;;;;;;;;;;5074326;28;20047;-89
2021/10/19 08:34:42;;;;;;;38.15;29.85;;;;;;;;;;5072543;28;20043;-89
2021/10/19 08:37:08;;;;;;;42.75;28.08;;;;;;;;;;5074494;28;20020;-89
2021/10/19 08:39:33;;;;;;;41.05;29.83;;;;;;;;;;5074929;28;20518;-89
2021/10/19 08:41:59;;;;;;;45.95;30.60;;;;;;;;;;5074444;28;20027;-89
2021/10/19 08:44:25;;;;;;;42.75;28.23;;;;;;;;;;5071721;28;20021;-89
2021/10/19 08:46:50;;;;;;;38.38;29.40;;;;;;;;;;5075049;28;20024;-89
2021/10/19 08:49:18;;;;;;;40.25;29.98;;;;;;;;;;5074716;28;20028;-88
2021/10/19 08:51:43;;;;;;;39.40;30.00;;;;;;;;;;5069432;28;20388;-89
2021/10/19 08:54:09;;;;;;;42.20;28.33;;;;;;;;;;5074365;28;20037;-89
2021/10/19 08:56:39;;;;;;;40.60;31.05;;;;;;;;;;5068607;28;20055;-89
2021/10/19 08:59:04;;;;;;;47.03;30.15;;;;;;;;;;5068738;28;20097;-89
2021/10/19 09:01:33;;;;;;;43.75;31.05;;;;;;;;;;5074185;28;20868;-89
2021/10/19 09:03:59;;;;;;;40.25;29.30;;;;;;;;;;5074127;28;20016;-88
2021/10/19 09:06:33;;;;;;;38.45;29.35;;;;;;;;;;5073880;28;20032;-88
2021/10/19 09:09:06;;;;;;;40.85;29.83;;;;;;;;;;5072064;28;20020;-89
2021/10/19 09:11:38;;;;;;;39.67;30.00;;;;;;;;;;5074302;28;20445;-88
2021/10/19 09:14:04;;;;;;;36.20;28.73;;;;;;;;;;5073975;28;20070;-89
2021/10/19 09:16:39;;;;;;;42.90;30.83;;;;;;;;;;5073992;28;20024;-89
2021/10/19 09:19:04;;;;;;;41.10;29.48;;;;;;;;;;5072295;28;20064;-88
2021/10/19 09:21:30;;;;;;;40.30;29.50;;;;;;;;;;5073387;28;20055;-89
2021/10/19 09:24:14;;;;;;;39.97;29.02;;;;;;;;;;5073995;28;20016;-89
2021/10/19 09:26:48;;;;;;;41.78;29.63;;;;;;;;;;5073373;28;20444;-88
2021/10/19 09:29:13;;;;;;;39.10;29.13;;;;;;;;;;5072945;28;20039;-88
2021/10/19 09:31:38;;;;;;;40.13;29.57;;;;;;;;;;5074598;28;20025;-88
2021/10/19 09:34:06;;;;;;;44.00;30.90;;;;;;;;;;5073740;28;20259;-88
2021/10/19 09:36:33;;;;;;;36.65;27.85;;;;;;;;;;5062867;28;20369;-88
2021/10/19 09:38:58;;;;;;;40.80;28.77;;;;;;;;;;5053765;28;20052;-88
2021/10/19 09:41:23;;;;;;;43.40;30.77;;;;;;;;;;5052781;28;20425;-89
2021/10/19 09:43:49;;;;;;;40.50;31.00;;;;;;;;;;5051010;28;20116;-89
2021/10/19 09:46:22;;;;;;;49.67;31.73;;;;;;;;;;5061559;28;20039;-89
2021/10/19 09:48:48;;;;;;;43.28;32.63;;;;;;;;;;5073515;28;20259;-89
2021/10/19 09:51:14;;;;;;;45.00;34.08;;;;;;;;;;5073603;28;20468;-89
2021/10/19 09:53:39;;;;;;;42.35;31.17;;;;;;;;;;5071973;28;20052;-89
2021/10/19 09:56:08;;;;;;;41.85;31.80;;;;;;;;;;5072293;28;20084;-88
2021/10/19 09:58:35;;;;;;;38.78;30.88;;;;;;;;;;5074644;28;20033;-89
2021/10/19 10:01:01;;;;;;;52.30;33.00;;;;;;;;;;5072996;28;20038;-89
2021/10/19 10:03:27;;;;;;;50.13;34.25;;;;;;;;;;5072208;28;20027;-89
2021/10/19 10:05:52;;;;;;;49.05;35.85;;;;;;;;;;5071135;28;20017;-89
2021/10/19 10:08:19;;;;;;;50.58;33.22;;;;;;;;;;5071418;28;20037;-89
2021/10/19 10:10:44;;;;;;;45.03;33.38;;;;;;;;;;5074285;28;20031;-89
2021/10/19 10:13:14;;;;;;;39.75;30.98;;;;;;;;;;5073081;28;20020;-89
2021/10/19 10:15:39;;;;;;;46.33;31.88;;;;;;;;;;5073111;28;20029;-89
2021/10/19 10:18:05;;;;;;;42.75;31.40;;;;;;;;;;5071660;28;20838;-89
2021/10/19 10:20:51;;;;;;;45.35;33.85;;;;;;;;;;5072491;28;20023;-89
2021/10/19 10:23:20;;;;;;;45.60;32.97;;;;;;;;;;5073778;28;20028;-89
2021/10/19 10:25:47;;;;;;;45.90;34.20;;;;;;;;;;5073187;28;20028;-89
2021/10/19 10:28:17;;;;;;;44.13;33.30;;;;;;;;;;5071558;28;20020;-89
2021/10/19 10:30:45;;;;;;;40.78;31.85;;;;;;;;;;5072608;28;20035;-89
2021/10/19 10:33:11;;;;;;;41.95;32.90;;;;;;;;;;5056207;28;20029;-89
2021/10/19 10:35:41;;;;;;;49.53;34.03;;;;;;;;;;5052870;28;20025;-89
2021/10/19 10:38:06;;;;;;;45.95;34.30;;;;;;;;;;5051980;28;20076;-89
2021/10/19 10:40:33;;;;;;;47.30;33.27;;;;;;;;;;5050646;28;20063;-89
2021/10/19 10:42:59;;;;;;;47.38;34.90;;;;;;;;;;5052370;28;20624;-89
2021/10/19 10:45:30;;;;;;;43.00;31.85;;;;;;;;;;5051920;28;20021;-88
2021/10/19 10:47:57;;;;;;;55.28;34.75;;;;;;;;;;5052537;28;20507;-89
2021/10/19 10:50:23;;;;;;;47.50;34.25;;;;;;;;;;5051871;28;20029;-89
2021/10/19 10:53:05;;;;;;;48.47;35.97;;;;;;;;;;5050264;28;20087;-89
2021/10/19 10:55:54;;;;;;;51.30;35.58;;;;;;;;;;5071994;28;20108;-89
2021/10/19 10:58:26;;;;;;;45.72;34.25;;;;;;;;;;5072426;28;20045;-89
2021/10/19 11:00:52;;;;;;;54.58;34.42;;;;;;;;;;5071738;28;20078;-89
2021/10/19 11:03:17;;;;;;;42.30;32.63;;;;;;;;;;5070258;28;20028;-87
2021/10/19 11:05:52;;;;;;;48.25;32.75;;;;;;;;;;5071128;28;20099;-87
2021/10/19 11:08:35;;;;;;;49.35;35.28;;;;;;;;;;5072125;28;20528;-87
2021/10/19 11:11:07;;;;;;;43.90;33.25;;;;;;;;;;5073257;28;20028;-87
2021/10/19 11:13:43;;;;;;;45.35;32.67;;;;;;;;;;5072207;28;20044;-87
2021/10/19 11:16:09;;;;;;;45.63;34.97;;;;;;;;;;5069512;28;20023;-87
2021/10/19 11:18:38;;;;;;;50.55;35.50;;;;;;;;;;5071400;28;20076;-87
2021/10/19 11:21:03;;;;;;;46.60;34.53;;;;;;;;;;5056854;28;20013;-87
2021/10/19 11:23:28;;;;;;;47.67;34.22;;;;;;;;;;5052004;28;20082;-87
2021/10/19 11:25:55;;;;;;;48.90;35.40;;;;;;;;;;5051655;28;20017;-86
2021/10/19 11:28:20;;;;;;;46.28;33.28;;;;;;;;;;5049981;28;20367;-86
2021/10/19 11:30:47;;;;;;;45.55;35.20;;;;;;;;;;5052041;28;20437;-87
2021/10/19 11:33:13;;;;;;;49.03;34.53;;;;;;;;;;5052176;28;20100;-87
2021/10/19 11:35:38;;;;;;;47.20;34.35;;;;;;;;;;5052148;28;20044;-86
2021/10/19 11:38:03;;;;;;;58.20;37.92;;;;;;;;;;5050132;28;20373;-87
2021/10/19 11:40:28;;;;;;;57.57;38.97;;;;;;;;;;5052001;28;20737;-87
2021/10/19 11:42:55;;;;;;;67.25;41.47;;;;;;;;;;5065563;28;20267;-87
2021/10/19 11:45:22;;;;;;;59.55;41.58;;;;;;;;;;5072043;28;20013;-86
2021/10/19 11:47:49;;;;;;;72.63;46.65;;;;;;;;;;5071647;28;20823;-87
2021/10/19 11:50:16;;;;;;;64.85;42.83;;;;;;;;;;5071181;28;20035;-87
2021/10/19 11:52:41;;;;;;;91.10;51.55;;;;;;;;;;5057020;28;20029;-87
2021/10/19 11:55:06;;;;;;;60.30;42.85;;;;;;;;;;5051062;28;20726;-89
2021/10/19 11:57:36;;;;;;;74.47;49.47;;;;;;;;;;5052664;28;20123;-88
2021/10/19 12:00:04;;;;;;;61.75;42.55;;;;;;;;;;5051950;28;20117;-88
2021/10/19 12:02:29;;;;;;;62.70;41.60;;;;;;;;;;5051624;28;20017;-89
2021/10/19 12:05:03;;;;;;;73.10;44.50;;;;;;;;;;5049854;28;20439;-89
2021/10/19 12:07:30;;;;;;;72.75;46.03;;;;;;;;;;5070880;28;20107;-89
2021/10/19 12:09:55;;;;;;;74.30;48.40;;;;;;;;;;5071835;28;20376;-88
2021/10/19 12:12:24;;;;;;;82.00;50.87;;;;;;;;;;5073329;28;20031;-88
2021/10/19 12:14:54;;;;;;;89.15;52.45;;;;;;;;;;5072367;28;20596;-89
2021/10/19 12:17:19;;;;;;;61.00;43.72;;;;;;;;;;5068210;28;20032;-89
2021/10/19 12:19:51;;;;;;;57.07;43.37;;;;;;;;;;5051939;28;20067;-89
2021/10/19 12:22:17;;;;;;;75.18;47.35;;;;;;;;;;5055825;28;20024;-89
2021/10/19 12:24:42;;;;;;;59.20;43.60;;;;;;;;;;5055552;28;20021;-89
2021/10/19 12:27:09;;;;;;;70.70;48.10;;;;;;;;;;5054770;28;20283;-89
2021/10/19 12:29:35;;;;;;;56.35;43.67;;;;;;;;;;5054690;28;20017;-89
2021/10/19 12:32:02;;;;;;;58.78;45.38;;;;;;;;;;5054952;28;20021;-89
2021/10/19 12:34:27;;;;;;;73.95;48.45;;;;;;;;;;5054969;28;20030;-89
2021/10/19 12:36:53;;;;;;;81.60;50.13;;;;;;;;;;5054663;28;20036;-88
2021/10/19 12:39:19;;;;;;;67.07;46.58;;;;;;;;;;5053167;28;20029;-89
2021/10/19 12:41:44;;;;;;;80.45;51.13;;;;;;;;;;5057345;28;20016;-89
2021/10/19 12:44:11;;;;;;;96.43;56.63;;;;;;;;;;5076346;28;20032;-89
2021/10/19 12:46:36;;;;;;;71.05;49.88;;;;;;;;;;5074572;28;20060;-88
2021/10/19 12:49:02;;;;;;;74.73;51.37;;;;;;;;;;5073970;28;20724;-89
2021/10/19 12:51:28;;;;;;;82.32;53.58;;;;;;;;;;5072670;28;20321;-89
2021/10/19 12:53:53;;;;;;;78.10;53.00;;;;;;;;;;5068717;28;20051;-89
2021/10/19 12:56:22;;;;;;;117.70;66.63;;;;;;;;;;5054316;28;20061;-88
2021/10/19 12:58:48;;;;;;;103.10;62.40;;;;;;;;;;5054431;28;20033;-88
2021/10/19 13:01:14;;;;;;;77.47;52.50;;;;;;;;;;5053874;28;20017;-89
2021/10/19 13:03:39;;;;;;;78.78;54.65;;;;;;;;;;5053842;28;20017;-89
2021/10/19 13:06:05;;;;;;;76.65;54.00;;;;;;;;;;5056627;28;20074;-89
2021/10/19 13:08:32;;;;;;;77.30;52.28;;;;;;;;;;5054643;28;20473;-89
2021/10/19 13:10:57;;;;;;;71.35;51.47;;;;;;;;;;5054681;28;20017;-87
2021/10/19 13:13:23;;;;;;;76.90;53.20;;;;;;;;;;5053154;28;20828;-87
2021/10/19 13:15:48;;;;;;;79.05;53.92;;;;;;;;;;5052277;28;20267;-87
2021/10/19 13:18:13;;;;;;;79.05;53.42;;;;;;;;;;5054076;28;20086;-87
2021/10/19 13:20:39;;;;;;;104.23;61.50;;;;;;;;;;5054609;28;20112;-86
2021/10/19 13:23:04;;;;;;;61.72;48.22;;;;;;;;;;5053837;28;20342;-87
2021/10/19 13:25:29;;;;;;;74.88;51.35;;;;;;;;;;5051594;28;20027;-87
2021/10/19 13:27:55;;;;;;;70.90;47.95;;;;;;;;;;5053207;28;20738;-87
2021/10/19 13:30:20;;;;;;;90.20;55.67;;;;;;;;;;5055055;28;20044;-87
2021/10/19 13:32:48;;;;;;;77.50;49.28;;;;;;;;;;5055233;28;20123;-87
2021/10/19 13:35:13;;;;;;;90.63;54.20;;;;;;;;;;5055281;28;20739;-87
2021/10/19 13:37:39;;;;;;;79.03;48.90;;;;;;;;;;5052467;28;20037;-87
2021/10/19 13:40:05;;;;;;;50.75;38.40;;;;;;;;;;5060421;28;20056;-87
2021/10/19 13:42:31;;;;;;;57.53;39.90;;;;;;;;;;5073896;28;20069;-87
2021/10/19 13:44:56;;;;;;;77.88;48.88;;;;;;;;;;5073617;28;20043;-87
2021/10/19 13:47:22;;;;;;;51.88;37.97;;;;;;;;;;5072416;28;20121;-87
2021/10/19 13:49:47;;;;;;;48.03;34.38;;;;;;;;;;5073224;28;20361;-87
2021/10/19 13:52:12;;;;;;;40.30;33.00;;;;;;;;;;5073246;28;20070;-87
2021/10/19 13:54:39;;;;;;;55.20;38.25;;;;;;;;;;5073564;28;20263;-87
2021/10/19 13:57:04;;;;;;;56.25;38.53;;;;;;;;;;5072835;28;20047;-87
2021/10/19 13:59:30;;;;;;;50.22;36.15;;;;;;;;;;5073266;28;20025;-87
2021/10/19 14:01:55;;;;;;;55.30;36.13;;;;;;;;;;5066908;28;20020;-87
2021/10/19 14:04:21;;;;;;;40.30;31.83;;;;;;;;;;5061031;28;20395;-87
2021/10/19 14:06:46;;;;;;;38.60;31.63;;;;;;;;;;5074665;28;20403;-87
2021/10/19 14:09:11;;;;;;;47.22;35.67;;;;;;;;;;5073408;28;20021;-87